sensor_id;sensor_type;location;lat;lon;timestamp;P1;durP1;ratioP1;P2;durP2;ratioP2
47329;SDS011;33060;50.178;7.570;2023-02-01T00:01:13;11.87;;;9.23;;
47329;SDS011;33060;50.178;7.570;2023-02-01T00:03:40;11.70;;;9.67;;
47329;SDS011;33060;50.178;7.570;2023-02-01T00:06:06;12.67;;;10.47;;
47329;SDS011;33060;50.178;7.570;2023-02-01T00:08:33;12.67;;;10.90;;
47329;SDS011;33060;50.178;7.570;2023-02-01T00:11:01;14.47;;;11.27;;
47329;SDS011;33060;50.178;7.570;2023-02-01T00:13:34;13.50;;;10.70;;
47329;SDS011;33060;50.178;7.570;2023-02-01T00:16:08;12.17;;;10.23;;
47329;SDS011;33060;50.178;7.570;2023-02-01T00:18:38;11.60;;;10.40;;
47329;SDS011;33060;50.178;7.570;2023-02-01T00:21:05;12.97;;;10.03;;
47329;SDS011;33060;50.178;7.570;2023-02-01T00:23:32;12.00;;;9.90;;
47329;SDS011;33060;50.178;7.570;2023-02-01T00:26:04;11.40;;;10.07;;
47329;SDS011;33060;50.178;7.570;2023-02-01T00:28:31;12.47;;;9.97;;
47329;SDS011;33060;50.178;7.570;2023-02-01T00:31:02;11.80;;;10.10;;
47329;SDS011;33060;50.178;7.570;2023-02-01T00:33:30;12.67;;;9.67;;
47329;SDS011;33060;50.178;7.570;2023-02-01T00:35:58;11.13;;;9.53;;
47329;SDS011;33060;50.178;7.570;2023-02-01T00:38:27;11.90;;;9.63;;
47329;SDS011;33060;50.178;7.570;2023-02-01T00:40:54;11.13;;;9.03;;
47329;SDS011;33060;50.178;7.570;2023-02-01T00:43:28;11.57;;;9.27;;
47329;SDS011;33060;50.178;7.570;2023-02-01T00:45:54;10.17;;;8.67;;
47329;SDS011;33060;50.178;7.570;2023-02-01T00:48:21;10.20;;;8.20;;
47329;SDS011;33060;50.178;7.570;2023-02-01T00:50:48;12.10;;;9.07;;
47329;SDS011;33060;50.178;7.570;2023-02-01T00:53:15;10.33;;;8.80;;
47329;SDS011;33060;50.178;7.570;2023-02-01T00:55:46;12.03;;;8.90;;
47329;SDS011;33060;50.178;7.570;2023-02-01T00:58:13;10.70;;;9.13;;
47329;SDS011;33060;50.178;7.570;2023-02-01T01:00:40;12.33;;;9.43;;
47329;SDS011;33060;50.178;7.570;2023-02-01T01:03:07;11.30;;;9.23;;
47329;SDS011;33060;50.178;7.570;2023-02-01T01:05:44;12.07;;;8.60;;
47329;SDS011;33060;50.178;7.570;2023-02-01T01:08:12;12.23;;;8.53;;
47329;SDS011;33060;50.178;7.570;2023-02-01T01:10:39;11.60;;;8.50;;
47329;SDS011;33060;50.178;7.570;2023-02-01T01:13:06;10.57;;;8.03;;
47329;SDS011;33060;50.178;7.570;2023-02-01T01:15:36;11.43;;;8.43;;
47329;SDS011;33060;50.178;7.570;2023-02-01T01:18:04;10.40;;;7.87;;
47329;SDS011;33060;50.178;7.570;2023-02-01T01:20:33;10.87;;;8.40;;
47329;SDS011;33060;50.178;7.570;2023-02-01T01:23:01;9.47;;;7.87;;
47329;SDS011;33060;50.178;7.570;2023-02-01T01:25:28;9.63;;;7.67;;
47329;SDS011;33060;50.178;7.570;2023-02-01T01:27:55;9.23;;;7.70;;
47329;SDS011;33060;50.178;7.570;2023-02-01T01:30:22;8.60;;;7.00;;
47329;SDS011;33060;50.178;7.570;2023-02-01T01:32:49;10.30;;;7.57;;
47329;SDS011;33060;50.178;7.570;2023-02-01T01:35:17;10.47;;;7.30;;
47329;SDS011;33060;50.178;7.570;2023-02-01T01:37:44;11.23;;;7.53;;
47329;SDS011;33060;50.178;7.570;2023-02-01T01:40:11;8.10;;;6.63;;
47329;SDS011;33060;50.178;7.570;2023-02-01T01:42:38;8.00;;;6.80;;
47329;SDS011;33060;50.178;7.570;2023-02-01T01:48:25;7.73;;;5.70;;
47329;SDS011;33060;50.178;7.570;2023-02-01T01:50:58;7.10;;;5.07;;
47329;SDS011;33060;50.178;7.570;2023-02-01T01:53:42;7.53;;;4.97;;
47329;SDS011;33060;50.178;7.570;2023-02-01T01:56:11;6.43;;;5.40;;
47329;SDS011;33060;50.178;7.570;2023-02-01T01:58:39;6.30;;;5.40;;
47329;SDS011;33060;50.178;7.570;2023-02-01T02:01:06;6.50;;;4.87;;
47329;SDS011;33060;50.178;7.570;2023-02-01T02:03:35;5.87;;;4.60;;
47329;SDS011;33060;50.178;7.570;2023-02-01T02:06:07;6.20;;;4.97;;
47329;SDS011;33060;50.178;7.570;2023-02-01T02:08:41;6.27;;;4.87;;
47329;SDS011;33060;50.178;7.570;2023-02-01T02:11:09;6.27;;;4.53;;
47329;SDS011;33060;50.178;7.570;2023-02-01T02:13:39;6.70;;;5.43;;
47329;SDS011;33060;50.178;7.570;2023-02-01T02:19:11;6.20;;;4.43;;
47329;SDS011;33060;50.178;7.570;2023-02-01T02:36:03;6.67;;;4.93;;
47329;SDS011;33060;50.178;7.570;2023-02-01T02:41:27;9.70;;;5.80;;
47329;SDS011;33060;50.178;7.570;2023-02-01T02:47:46;6.83;;;5.30;;
47329;SDS011;33060;50.178;7.570;2023-02-01T02:53:16;7.60;;;5.47;;
47329;SDS011;33060;50.178;7.570;2023-02-01T02:56:06;7.80;;;5.40;;
47329;SDS011;33060;50.178;7.570;2023-02-01T02:58:55;7.10;;;5.80;;
47329;SDS011;33060;50.178;7.570;2023-02-01T03:01:40;10.43;;;6.50;;
47329;SDS011;33060;50.178;7.570;2023-02-01T03:04:26;7.53;;;5.73;;
47329;SDS011;33060;50.178;7.570;2023-02-01T03:06:53;7.53;;;5.43;;
47329;SDS011;33060;50.178;7.570;2023-02-01T03:09:23;9.03;;;5.67;;
47329;SDS011;33060;50.178;7.570;2023-02-01T03:11:56;7.10;;;5.03;;
47329;SDS011;33060;50.178;7.570;2023-02-01T03:14:47;10.03;;;5.30;;
47329;SDS011;33060;50.178;7.570;2023-02-01T03:17:19;8.20;;;5.20;;
47329;SDS011;33060;50.178;7.570;2023-02-01T03:19:52;13.90;;;6.17;;
47329;SDS011;33060;50.178;7.570;2023-02-01T03:22:22;9.17;;;5.10;;
47329;SDS011;33060;50.178;7.570;2023-02-01T03:24:56;9.13;;;5.87;;
47329;SDS011;33060;50.178;7.570;2023-02-01T03:30:22;9.53;;;5.40;;
47329;SDS011;33060;50.178;7.570;2023-02-01T03:32:50;10.30;;;6.10;;
47329;SDS011;33060;50.178;7.570;2023-02-01T03:35:31;10.43;;;5.60;;
47329;SDS011;33060;50.178;7.570;2023-02-01T03:38:22;12.13;;;5.80;;
47329;SDS011;33060;50.178;7.570;2023-02-01T03:41:08;12.07;;;5.20;;
47329;SDS011;33060;50.178;7.570;2023-02-01T03:43:56;8.67;;;5.53;;
47329;SDS011;33060;50.178;7.570;2023-02-01T03:46:35;10.87;;;5.37;;
47329;SDS011;33060;50.178;7.570;2023-02-01T03:49:07;9.43;;;5.63;;
47329;SDS011;33060;50.178;7.570;2023-02-01T03:51:38;10.70;;;5.23;;
47329;SDS011;33060;50.178;7.570;2023-02-01T03:54:09;11.77;;;5.17;;
47329;SDS011;33060;50.178;7.570;2023-02-01T03:56:40;11.27;;;5.10;;
47329;SDS011;33060;50.178;7.570;2023-02-01T03:59:10;11.03;;;5.27;;
47329;SDS011;33060;50.178;7.570;2023-02-01T04:01:38;12.50;;;5.20;;
47329;SDS011;33060;50.178;7.570;2023-02-01T04:04:05;10.77;;;5.10;;
47329;SDS011;33060;50.178;7.570;2023-02-01T04:06:33;10.63;;;5.10;;
47329;SDS011;33060;50.178;7.570;2023-02-01T04:09:02;12.40;;;4.60;;
47329;SDS011;33060;50.178;7.570;2023-02-01T04:11:28;10.23;;;5.13;;
47329;SDS011;33060;50.178;7.570;2023-02-01T04:13:55;13.70;;;5.10;;
47329;SDS011;33060;50.178;7.570;2023-02-01T04:16:22;7.47;;;5.00;;
47329;SDS011;33060;50.178;7.570;2023-02-01T04:18:55;10.40;;;5.30;;
47329;SDS011;33060;50.178;7.570;2023-02-01T04:21:21;11.20;;;4.93;;
47329;SDS011;33060;50.178;7.570;2023-02-01T04:23:48;12.50;;;5.13;;
47329;SDS011;33060;50.178;7.570;2023-02-01T04:26:15;12.87;;;4.33;;
47329;SDS011;33060;50.178;7.570;2023-02-01T04:28:42;11.87;;;4.50;;
47329;SDS011;33060;50.178;7.570;2023-02-01T04:31:09;7.83;;;4.77;;
47329;SDS011;33060;50.178;7.570;2023-02-01T04:33:35;10.13;;;4.50;;
47329;SDS011;33060;50.178;7.570;2023-02-01T04:36:02;12.73;;;4.73;;
47329;SDS011;33060;50.178;7.570;2023-02-01T04:38:29;10.80;;;4.67;;
47329;SDS011;33060;50.178;7.570;2023-02-01T04:40:55;12.33;;;4.67;;
47329;SDS011;33060;50.178;7.570;2023-02-01T04:43:22;10.27;;;4.33;;
47329;SDS011;33060;50.178;7.570;2023-02-01T04:45:49;11.40;;;4.93;;
47329;SDS011;33060;50.178;7.570;2023-02-01T04:48:16;10.70;;;5.20;;
47329;SDS011;33060;50.178;7.570;2023-02-01T04:50:44;11.53;;;5.20;;
47329;SDS011;33060;50.178;7.570;2023-02-01T04:53:14;12.37;;;5.00;;
47329;SDS011;33060;50.178;7.570;2023-02-01T04:55:41;11.17;;;4.80;;
47329;SDS011;33060;50.178;7.570;2023-02-01T04:58:09;13.33;;;5.40;;
47329;SDS011;33060;50.178;7.570;2023-02-01T05:00:37;12.43;;;5.13;;
47329;SDS011;33060;50.178;7.570;2023-02-01T05:03:04;11.30;;;5.50;;
47329;SDS011;33060;50.178;7.570;2023-02-01T05:05:30;11.83;;;5.43;;
47329;SDS011;33060;50.178;7.570;2023-02-01T05:07:57;13.67;;;5.30;;
47329;SDS011;33060;50.178;7.570;2023-02-01T05:10:24;11.53;;;5.00;;
47329;SDS011;33060;50.178;7.570;2023-02-01T05:12:50;11.20;;;5.00;;
47329;SDS011;33060;50.178;7.570;2023-02-01T05:15:35;10.87;;;4.97;;
47329;SDS011;33060;50.178;7.570;2023-02-01T05:18:02;12.03;;;4.97;;
47329;SDS011;33060;50.178;7.570;2023-02-01T05:20:29;11.60;;;5.10;;
47329;SDS011;33060;50.178;7.570;2023-02-01T05:22:56;12.03;;;5.20;;
47329;SDS011;33060;50.178;7.570;2023-02-01T05:25:22;12.23;;;4.87;;
47329;SDS011;33060;50.178;7.570;2023-02-01T05:27:49;11.40;;;5.07;;
47329;SDS011;33060;50.178;7.570;2023-02-01T05:30:15;13.20;;;5.63;;
47329;SDS011;33060;50.178;7.570;2023-02-01T05:32:42;16.00;;;5.20;;
47329;SDS011;33060;50.178;7.570;2023-02-01T05:35:09;10.60;;;5.37;;
47329;SDS011;33060;50.178;7.570;2023-02-01T05:37:36;11.33;;;5.00;;
47329;SDS011;33060;50.178;7.570;2023-02-01T05:40:02;12.57;;;4.90;;
47329;SDS011;33060;50.178;7.570;2023-02-01T05:42:29;11.63;;;4.93;;
47329;SDS011;33060;50.178;7.570;2023-02-01T05:44:56;11.53;;;4.73;;
47329;SDS011;33060;50.178;7.570;2023-02-01T05:47:22;10.40;;;4.63;;
47329;SDS011;33060;50.178;7.570;2023-02-01T05:49:49;9.90;;;4.60;;
47329;SDS011;33060;50.178;7.570;2023-02-01T05:52:16;12.97;;;5.40;;
47329;SDS011;33060;50.178;7.570;2023-02-01T05:54:45;14.17;;;5.03;;
47329;SDS011;33060;50.178;7.570;2023-02-01T05:57:13;13.37;;;5.70;;
47329;SDS011;33060;50.178;7.570;2023-02-01T05:59:40;13.30;;;5.23;;
47329;SDS011;33060;50.178;7.570;2023-02-01T06:02:07;11.87;;;5.50;;
47329;SDS011;33060;50.178;7.570;2023-02-01T06:04:34;11.00;;;4.90;;
47329;SDS011;33060;50.178;7.570;2023-02-01T06:07:01;15.40;;;5.43;;
47329;SDS011;33060;50.178;7.570;2023-02-01T06:09:28;9.50;;;4.67;;
47329;SDS011;33060;50.178;7.570;2023-02-01T06:11:55;15.73;;;5.87;;
47329;SDS011;33060;50.178;7.570;2023-02-01T06:14:21;14.77;;;5.90;;
47329;SDS011;33060;50.178;7.570;2023-02-01T06:16:48;11.53;;;5.13;;
47329;SDS011;33060;50.178;7.570;2023-02-01T06:19:14;14.50;;;5.17;;
47329;SDS011;33060;50.178;7.570;2023-02-01T06:21:41;14.47;;;5.20;;
47329;SDS011;33060;50.178;7.570;2023-02-01T06:24:08;9.60;;;4.40;;
47329;SDS011;33060;50.178;7.570;2023-02-01T06:26:36;13.17;;;4.40;;
47329;SDS011;33060;50.178;7.570;2023-02-01T06:29:02;12.93;;;4.07;;
47329;SDS011;33060;50.178;7.570;2023-02-01T06:31:29;12.70;;;4.30;;
47329;SDS011;33060;50.178;7.570;2023-02-01T06:33:56;14.43;;;5.43;;
47329;SDS011;33060;50.178;7.570;2023-02-01T06:36:22;12.27;;;4.67;;
47329;SDS011;33060;50.178;7.570;2023-02-01T06:38:49;16.17;;;5.17;;
47329;SDS011;33060;50.178;7.570;2023-02-01T06:41:16;11.57;;;4.90;;
47329;SDS011;33060;50.178;7.570;2023-02-01T06:43:43;12.43;;;5.67;;
47329;SDS011;33060;50.178;7.570;2023-02-01T06:46:13;14.67;;;5.50;;
47329;SDS011;33060;50.178;7.570;2023-02-01T06:48:41;10.37;;;5.43;;
47329;SDS011;33060;50.178;7.570;2023-02-01T06:51:21;10.77;;;4.53;;
47329;SDS011;33060;50.178;7.570;2023-02-01T06:53:49;11.30;;;4.37;;
47329;SDS011;33060;50.178;7.570;2023-02-01T06:56:16;15.33;;;4.83;;
47329;SDS011;33060;50.178;7.570;2023-02-01T06:58:43;12.67;;;4.70;;
47329;SDS011;33060;50.178;7.570;2023-02-01T07:01:10;11.63;;;4.23;;
47329;SDS011;33060;50.178;7.570;2023-02-01T07:03:37;13.80;;;5.07;;
47329;SDS011;33060;50.178;7.570;2023-02-01T07:06:04;11.57;;;4.03;;
47329;SDS011;33060;50.178;7.570;2023-02-01T07:08:32;10.80;;;4.53;;
47329;SDS011;33060;50.178;7.570;2023-02-01T07:11:01;14.60;;;4.10;;
47329;SDS011;33060;50.178;7.570;2023-02-01T07:13:29;11.77;;;4.17;;
47329;SDS011;33060;50.178;7.570;2023-02-01T07:16:03;10.73;;;4.10;;
47329;SDS011;33060;50.178;7.570;2023-02-01T07:18:35;12.80;;;3.90;;
47329;SDS011;33060;50.178;7.570;2023-02-01T07:21:02;11.17;;;3.80;;
47329;SDS011;33060;50.178;7.570;2023-02-01T07:23:28;11.33;;;3.90;;
47329;SDS011;33060;50.178;7.570;2023-02-01T07:25:56;12.87;;;4.43;;
47329;SDS011;33060;50.178;7.570;2023-02-01T07:28:24;15.13;;;4.13;;
47329;SDS011;33060;50.178;7.570;2023-02-01T07:30:51;10.63;;;4.07;;
47329;SDS011;33060;50.178;7.570;2023-02-01T07:33:22;11.70;;;3.83;;
47329;SDS011;33060;50.178;7.570;2023-02-01T07:35:53;13.13;;;4.50;;
47329;SDS011;33060;50.178;7.570;2023-02-01T07:38:20;8.97;;;3.70;;
47329;SDS011;33060;50.178;7.570;2023-02-01T07:40:47;11.10;;;4.07;;
47329;SDS011;33060;50.178;7.570;2023-02-01T07:43:14;14.07;;;3.97;;
47329;SDS011;33060;50.178;7.570;2023-02-01T07:45:41;11.43;;;4.13;;
47329;SDS011;33060;50.178;7.570;2023-02-01T07:48:08;10.90;;;3.93;;
47329;SDS011;33060;50.178;7.570;2023-02-01T07:50:34;12.23;;;3.73;;
47329;SDS011;33060;50.178;7.570;2023-02-01T07:53:01;13.37;;;5.17;;
47329;SDS011;33060;50.178;7.570;2023-02-01T07:55:27;8.90;;;4.33;;
47329;SDS011;33060;50.178;7.570;2023-02-01T07:57:57;9.37;;;3.67;;
47329;SDS011;33060;50.178;7.570;2023-02-01T08:00:25;13.07;;;4.10;;
47329;SDS011;33060;50.178;7.570;2023-02-01T08:03:11;11.17;;;3.70;;
47329;SDS011;33060;50.178;7.570;2023-02-01T08:05:38;11.07;;;4.43;;
47329;SDS011;33060;50.178;7.570;2023-02-01T08:08:04;12.93;;;4.00;;
47329;SDS011;33060;50.178;7.570;2023-02-01T08:10:32;11.83;;;4.00;;
47329;SDS011;33060;50.178;7.570;2023-02-01T08:12:59;12.33;;;3.83;;
47329;SDS011;33060;50.178;7.570;2023-02-01T08:15:26;11.73;;;4.23;;
47329;SDS011;33060;50.178;7.570;2023-02-01T08:17:53;13.00;;;4.70;;
47329;SDS011;33060;50.178;7.570;2023-02-01T08:20:24;10.73;;;4.17;;
47329;SDS011;33060;50.178;7.570;2023-02-01T08:22:54;16.37;;;5.90;;
47329;SDS011;33060;50.178;7.570;2023-02-01T08:25:21;14.27;;;5.13;;
47329;SDS011;33060;50.178;7.570;2023-02-01T08:27:48;13.53;;;4.40;;
47329;SDS011;33060;50.178;7.570;2023-02-01T08:30:16;12.83;;;4.43;;
47329;SDS011;33060;50.178;7.570;2023-02-01T08:32:43;14.23;;;4.47;;
47329;SDS011;33060;50.178;7.570;2023-02-01T08:35:09;12.83;;;4.60;;
47329;SDS011;33060;50.178;7.570;2023-02-01T08:37:36;13.20;;;4.60;;
47329;SDS011;33060;50.178;7.570;2023-02-01T08:40:03;14.57;;;4.50;;
47329;SDS011;33060;50.178;7.570;2023-02-01T08:42:30;8.67;;;3.40;;
47329;SDS011;33060;50.178;7.570;2023-02-01T08:45:16;12.67;;;5.00;;
47329;SDS011;33060;50.178;7.570;2023-02-01T08:47:57;10.50;;;3.43;;
47329;SDS011;33060;50.178;7.570;2023-02-01T08:50:24;13.17;;;3.97;;
47329;SDS011;33060;50.178;7.570;2023-02-01T08:52:52;12.80;;;4.70;;
47329;SDS011;33060;50.178;7.570;2023-02-01T08:55:20;10.60;;;4.10;;
47329;SDS011;33060;50.178;7.570;2023-02-01T08:57:47;12.53;;;3.80;;
47329;SDS011;33060;50.178;7.570;2023-02-01T09:00:15;14.93;;;4.47;;
47329;SDS011;33060;50.178;7.570;2023-02-01T09:02:43;11.90;;;4.33;;
47329;SDS011;33060;50.178;7.570;2023-02-01T09:05:10;11.40;;;4.93;;
47329;SDS011;33060;50.178;7.570;2023-02-01T09:07:37;12.23;;;5.17;;
47329;SDS011;33060;50.178;7.570;2023-02-01T09:10:05;14.40;;;5.33;;
47329;SDS011;33060;50.178;7.570;2023-02-01T09:12:32;13.47;;;4.80;;
47329;SDS011;33060;50.178;7.570;2023-02-01T09:15:00;13.40;;;4.77;;
47329;SDS011;33060;50.178;7.570;2023-02-01T09:17:27;10.50;;;3.87;;
47329;SDS011;33060;50.178;7.570;2023-02-01T09:19:55;8.40;;;4.07;;
47329;SDS011;33060;50.178;7.570;2023-02-01T09:22:22;12.43;;;3.77;;
47329;SDS011;33060;50.178;7.570;2023-02-01T09:24:49;13.73;;;4.13;;
47329;SDS011;33060;50.178;7.570;2023-02-01T09:27:16;12.40;;;4.30;;
47329;SDS011;33060;50.178;7.570;2023-02-01T09:29:42;14.37;;;4.17;;
47329;SDS011;33060;50.178;7.570;2023-02-01T09:32:09;11.73;;;3.60;;
47329;SDS011;33060;50.178;7.570;2023-02-01T09:34:36;11.40;;;3.90;;
47329;SDS011;33060;50.178;7.570;2023-02-01T09:37:03;7.97;;;3.27;;
47329;SDS011;33060;50.178;7.570;2023-02-01T09:39:29;9.97;;;3.77;;
47329;SDS011;33060;50.178;7.570;2023-02-01T09:47:15;13.93;;;3.63;;
47329;SDS011;33060;50.178;7.570;2023-02-01T09:52:44;9.37;;;3.30;;
47329;SDS011;33060;50.178;7.570;2023-02-01T09:55:31;8.77;;;2.87;;
47329;SDS011;33060;50.178;7.570;2023-02-01T09:58:09;7.30;;;3.27;;
47329;SDS011;33060;50.178;7.570;2023-02-01T10:00:41;10.00;;;3.13;;
47329;SDS011;33060;50.178;7.570;2023-02-01T10:03:16;13.07;;;3.67;;
47329;SDS011;33060;50.178;7.570;2023-02-01T10:05:59;14.07;;;4.03;;
47329;SDS011;33060;50.178;7.570;2023-02-01T10:11:47;8.87;;;3.03;;
47329;SDS011;33060;50.178;7.570;2023-02-01T10:20:03;13.03;;;3.73;;
47329;SDS011;33060;50.178;7.570;2023-02-01T10:22:35;7.80;;;3.20;;
47329;SDS011;33060;50.178;7.570;2023-02-01T10:25:35;12.37;;;4.23;;
47329;SDS011;33060;50.178;7.570;2023-02-01T10:28:09;8.80;;;3.70;;
47329;SDS011;33060;50.178;7.570;2023-02-01T10:30:45;8.07;;;3.50;;
47329;SDS011;33060;50.178;7.570;2023-02-01T10:33:17;11.57;;;4.00;;
47329;SDS011;33060;50.178;7.570;2023-02-01T10:35:53;10.03;;;3.50;;
47329;SDS011;33060;50.178;7.570;2023-02-01T10:38:26;13.87;;;4.33;;
47329;SDS011;33060;50.178;7.570;2023-02-01T10:40:55;13.03;;;4.03;;
47329;SDS011;33060;50.178;7.570;2023-02-01T10:43:27;12.70;;;4.80;;
47329;SDS011;33060;50.178;7.570;2023-02-01T10:45:54;12.67;;;4.77;;
47329;SDS011;33060;50.178;7.570;2023-02-01T10:48:21;10.50;;;4.83;;
47329;SDS011;33060;50.178;7.570;2023-02-01T10:50:56;14.00;;;5.13;;
47329;SDS011;33060;50.178;7.570;2023-02-01T10:53:31;12.23;;;4.60;;
47329;SDS011;33060;50.178;7.570;2023-02-01T10:56:07;13.73;;;3.67;;
47329;SDS011;33060;50.178;7.570;2023-02-01T10:58:35;10.53;;;3.90;;
47329;SDS011;33060;50.178;7.570;2023-02-01T11:01:09;8.30;;;3.47;;
47329;SDS011;33060;50.178;7.570;2023-02-01T11:04:03;10.40;;;3.30;;
47329;SDS011;33060;50.178;7.570;2023-02-01T11:06:40;11.07;;;3.70;;
47329;SDS011;33060;50.178;7.570;2023-02-01T11:16:54;12.90;;;4.37;;
47329;SDS011;33060;50.178;7.570;2023-02-01T11:19:26;12.87;;;3.30;;
47329;SDS011;33060;50.178;7.570;2023-02-01T11:21:55;11.00;;;3.50;;
47329;SDS011;33060;50.178;7.570;2023-02-01T11:24:25;10.67;;;3.53;;
47329;SDS011;33060;50.178;7.570;2023-02-01T11:26:55;10.17;;;3.27;;
47329;SDS011;33060;50.178;7.570;2023-02-01T11:29:23;8.93;;;3.20;;
47329;SDS011;33060;50.178;7.570;2023-02-01T11:31:59;14.33;;;3.90;;
47329;SDS011;33060;50.178;7.570;2023-02-01T11:34:28;12.00;;;3.83;;
47329;SDS011;33060;50.178;7.570;2023-02-01T11:37:20;8.93;;;3.83;;
47329;SDS011;33060;50.178;7.570;2023-02-01T11:39:56;12.20;;;3.33;;
47329;SDS011;33060;50.178;7.570;2023-02-01T11:42:24;11.57;;;4.37;;
47329;SDS011;33060;50.178;7.570;2023-02-01T11:45:07;14.67;;;3.57;;
47329;SDS011;33060;50.178;7.570;2023-02-01T11:47:42;10.47;;;3.60;;
47329;SDS011;33060;50.178;7.570;2023-02-01T11:50:12;13.13;;;4.27;;
47329;SDS011;33060;50.178;7.570;2023-02-01T12:01:44;9.83;;;2.73;;
47329;SDS011;33060;50.178;7.570;2023-02-01T12:07:28;8.33;;;3.20;;
47329;SDS011;33060;50.178;7.570;2023-02-01T12:10:24;12.87;;;3.67;;
47329;SDS011;33060;50.178;7.570;2023-02-01T12:35:37;9.20;;;2.53;;
47329;SDS011;33060;50.178;7.570;2023-02-01T12:44:24;11.67;;;3.47;;
47329;SDS011;33060;50.178;7.570;2023-02-01T12:47:05;11.50;;;3.33;;
47329;SDS011;33060;50.178;7.570;2023-02-01T12:49:41;15.00;;;3.13;;
47329;SDS011;33060;50.178;7.570;2023-02-01T12:52:35;10.13;;;2.77;;
47329;SDS011;33060;50.178;7.570;2023-02-01T12:57:42;8.13;;;2.97;;
47329;SDS011;33060;50.178;7.570;2023-02-01T13:03:10;10.20;;;2.77;;
47329;SDS011;33060;50.178;7.570;2023-02-01T13:08:40;13.07;;;3.07;;
47329;SDS011;33060;50.178;7.570;2023-02-01T13:11:19;12.37;;;3.20;;
47329;SDS011;33060;50.178;7.570;2023-02-01T13:14:03;12.50;;;3.33;;
47329;SDS011;33060;50.178;7.570;2023-02-01T13:16:49;10.10;;;3.57;;
47329;SDS011;33060;50.178;7.570;2023-02-01T13:19:24;9.60;;;3.83;;
47329;SDS011;33060;50.178;7.570;2023-02-01T13:21:56;7.60;;;2.40;;
47329;SDS011;33060;50.178;7.570;2023-02-01T13:24:32;11.43;;;3.73;;
47329;SDS011;33060;50.178;7.570;2023-02-01T13:27:08;8.00;;;3.30;;
47329;SDS011;33060;50.178;7.570;2023-02-01T13:29:37;9.87;;;3.40;;
47329;SDS011;33060;50.178;7.570;2023-02-01T13:35:45;11.90;;;4.97;;
47329;SDS011;33060;50.178;7.570;2023-02-01T13:43:55;9.83;;;2.60;;
47329;SDS011;33060;50.178;7.570;2023-02-01T13:46:27;11.93;;;2.47;;
47329;SDS011;33060;50.178;7.570;2023-02-01T13:48:56;9.23;;;2.97;;
47329;SDS011;33060;50.178;7.570;2023-02-01T13:51:33;9.13;;;2.97;;
47329;SDS011;33060;50.178;7.570;2023-02-01T13:57:31;7.63;;;2.47;;
47329;SDS011;33060;50.178;7.570;2023-02-01T14:13:32;9.17;;;2.47;;
47329;SDS011;33060;50.178;7.570;2023-02-01T14:29:02;12.97;;;2.47;;
47329;SDS011;33060;50.178;7.570;2023-02-01T14:31:48;7.70;;;2.30;;
47329;SDS011;33060;50.178;7.570;2023-02-01T14:36:55;7.83;;;2.40;;
47329;SDS011;33060;50.178;7.570;2023-02-01T14:39:26;5.40;;;2.00;;
47329;SDS011;33060;50.178;7.570;2023-02-01T14:41:57;6.63;;;2.07;;
47329;SDS011;33060;50.178;7.570;2023-02-01T14:44:31;7.93;;;2.37;;
47329;SDS011;33060;50.178;7.570;2023-02-01T14:52:38;5.93;;;2.03;;
47329;SDS011;33060;50.178;7.570;2023-02-01T14:55:16;7.83;;;2.17;;
47329;SDS011;33060;50.178;7.570;2023-02-01T14:57:48;7.07;;;1.90;;
47329;SDS011;33060;50.178;7.570;2023-02-01T15:02:45;8.27;;;2.50;;
47329;SDS011;33060;50.178;7.570;2023-02-01T15:05:37;9.97;;;2.30;;
47329;SDS011;33060;50.178;7.570;2023-02-01T15:08:12;7.60;;;2.00;;
47329;SDS011;33060;50.178;7.570;2023-02-01T15:10:46;7.87;;;3.00;;
47329;SDS011;33060;50.178;7.570;2023-02-01T15:13:23;7.13;;;2.70;;
47329;SDS011;33060;50.178;7.570;2023-02-01T15:16:11;11.33;;;4.47;;
47329;SDS011;33060;50.178;7.570;2023-02-01T15:18:39;9.00;;;3.13;;
47329;SDS011;33060;50.178;7.570;2023-02-01T15:21:14;10.73;;;2.53;;
47329;SDS011;33060;50.178;7.570;2023-02-01T15:24:18;7.13;;;2.10;;
47329;SDS011;33060;50.178;7.570;2023-02-01T15:26:48;6.13;;;2.20;;
47329;SDS011;33060;50.178;7.570;2023-02-01T15:29:16;9.30;;;2.53;;
47329;SDS011;33060;50.178;7.570;2023-02-01T15:31:45;6.80;;;2.03;;
47329;SDS011;33060;50.178;7.570;2023-02-01T15:34:14;11.80;;;3.60;;
47329;SDS011;33060;50.178;7.570;2023-02-01T15:36:41;9.53;;;3.30;;
47329;SDS011;33060;50.178;7.570;2023-02-01T15:39:25;9.27;;;2.60;;
47329;SDS011;33060;50.178;7.570;2023-02-01T15:41:53;7.60;;;2.33;;
47329;SDS011;33060;50.178;7.570;2023-02-01T15:44:46;10.50;;;2.13;;
47329;SDS011;33060;50.178;7.570;2023-02-01T15:47:15;11.43;;;2.47;;
47329;SDS011;33060;50.178;7.570;2023-02-01T15:49:45;8.17;;;2.30;;
47329;SDS011;33060;50.178;7.570;2023-02-01T15:55:22;6.57;;;2.20;;
47329;SDS011;33060;50.178;7.570;2023-02-01T15:58:04;7.67;;;2.30;;
47329;SDS011;33060;50.178;7.570;2023-02-01T16:00:36;7.33;;;2.00;;
47329;SDS011;33060;50.178;7.570;2023-02-01T16:03:26;7.07;;;2.50;;
47329;SDS011;33060;50.178;7.570;2023-02-01T16:05:59;9.10;;;2.73;;
47329;SDS011;33060;50.178;7.570;2023-02-01T16:08:28;9.53;;;2.93;;
47329;SDS011;33060;50.178;7.570;2023-02-01T16:11:00;7.47;;;2.23;;
47329;SDS011;33060;50.178;7.570;2023-02-01T16:13:41;8.00;;;2.27;;
47329;SDS011;33060;50.178;7.570;2023-02-01T16:16:08;5.97;;;1.90;;
47329;SDS011;33060;50.178;7.570;2023-02-01T16:18:40;12.10;;;1.83;;
47329;SDS011;33060;50.178;7.570;2023-02-01T16:21:07;8.03;;;2.77;;
47329;SDS011;33060;50.178;7.570;2023-02-01T16:23:35;7.07;;;2.13;;
47329;SDS011;33060;50.178;7.570;2023-02-01T16:26:03;8.73;;;2.03;;
47329;SDS011;33060;50.178;7.570;2023-02-01T16:28:30;5.20;;;1.97;;
47329;SDS011;33060;50.178;7.570;2023-02-01T16:30:56;9.43;;;2.63;;
47329;SDS011;33060;50.178;7.570;2023-02-01T16:33:24;8.10;;;2.10;;
47329;SDS011;33060;50.178;7.570;2023-02-01T16:35:51;9.93;;;2.23;;
47329;SDS011;33060;50.178;7.570;2023-02-01T16:38:19;4.90;;;2.00;;
47329;SDS011;33060;50.178;7.570;2023-02-01T16:40:49;10.53;;;2.43;;
47329;SDS011;33060;50.178;7.570;2023-02-01T16:43:20;7.03;;;2.17;;
47329;SDS011;33060;50.178;7.570;2023-02-01T16:45:49;6.17;;;2.50;;
47329;SDS011;33060;50.178;7.570;2023-02-01T16:48:21;6.03;;;2.70;;
47329;SDS011;33060;50.178;7.570;2023-02-01T16:50:54;6.53;;;2.57;;
47329;SDS011;33060;50.178;7.570;2023-02-01T16:53:23;6.53;;;2.00;;
47329;SDS011;33060;50.178;7.570;2023-02-01T16:55:51;7.47;;;1.83;;
47329;SDS011;33060;50.178;7.570;2023-02-01T16:58:19;8.10;;;2.17;;
47329;SDS011;33060;50.178;7.570;2023-02-01T17:00:47;6.20;;;1.60;;
47329;SDS011;33060;50.178;7.570;2023-02-01T17:03:14;6.27;;;1.97;;
47329;SDS011;33060;50.178;7.570;2023-02-01T17:05:43;8.87;;;2.43;;
47329;SDS011;33060;50.178;7.570;2023-02-01T17:08:15;5.17;;;1.97;;
47329;SDS011;33060;50.178;7.570;2023-02-01T17:10:45;7.17;;;2.20;;
47329;SDS011;33060;50.178;7.570;2023-02-01T17:13:13;9.37;;;2.00;;
47329;SDS011;33060;50.178;7.570;2023-02-01T17:15:47;9.60;;;2.27;;
47329;SDS011;33060;50.178;7.570;2023-02-01T17:18:20;6.30;;;1.80;;
47329;SDS011;33060;50.178;7.570;2023-02-01T17:20:47;9.70;;;2.20;;
47329;SDS011;33060;50.178;7.570;2023-02-01T17:23:15;6.10;;;1.87;;
47329;SDS011;33060;50.178;7.570;2023-02-01T17:25:42;6.57;;;2.33;;
47329;SDS011;33060;50.178;7.570;2023-02-01T17:28:09;8.50;;;2.40;;
47329;SDS011;33060;50.178;7.570;2023-02-01T17:30:36;6.37;;;2.60;;
47329;SDS011;33060;50.178;7.570;2023-02-01T17:33:08;6.37;;;1.90;;
47329;SDS011;33060;50.178;7.570;2023-02-01T17:35:48;7.67;;;2.03;;
47329;SDS011;33060;50.178;7.570;2023-02-01T17:38:15;6.97;;;2.70;;
47329;SDS011;33060;50.178;7.570;2023-02-01T17:40:41;7.57;;;2.30;;